sensor_id;sensor_type;location;lat;lon;timestamp;pressure;altitude;pressure_sealevel;temperature;humidity
50632;BME280;49583;45.590;-122.498;2023-07-20T00:02:37;100953.64;;;37.01;23.92
50632;BME280;49583;45.590;-122.498;2023-07-20T00:05:09;100954.55;;;37.01;24.02
50632;BME280;49583;45.590;-122.498;2023-07-20T00:07:25;100951.44;;;37.02;23.84
50632;BME280;49583;45.590;-122.498;2023-07-20T00:09:42;100950.90;;;37.03;23.97
50632;BME280;49583;45.590;-122.498;2023-07-20T00:12:05;100949.63;;;37.06;24.03
50632;BME280;49583;45.590;-122.498;2023-07-20T00:14:29;100947.67;;;37.05;23.95
50632;BME280;49583;45.590;-122.498;2023-07-20T00:17:02;100944.39;;;37.05;23.99
50632;BME280;49583;45.590;-122.498;2023-07-20T00:19:30;100940.19;;;37.06;24.00
50632;BME280;49583;45.590;-122.498;2023-07-20T00:21:54;100945.50;;;37.01;23.69
50632;BME280;49583;45.590;-122.498;2023-07-20T00:24:27;100942.52;;;36.98;23.88
50632;BME280;49583;45.590;-122.498;2023-07-20T00:26:40;100942.33;;;36.96;23.91
50632;BME280;49583;45.590;-122.498;2023-07-20T00:29:05;100942.94;;;36.93;23.82
50632;BME280;49583;45.590;-122.498;2023-07-20T00:31:18;100938.55;;;36.92;23.80
50632;BME280;49583;45.590;-122.498;2023-07-20T00:33:40;100936.94;;;36.92;23.99
50632;BME280;49583;45.590;-122.498;2023-07-20T00:36:04;100938.98;;;36.94;24.06
50632;BME280;49583;45.590;-122.498;2023-07-20T00:38:20;100932.44;;;36.94;24.10
50632;BME280;49583;45.590;-122.498;2023-07-20T00:40:40;100929.16;;;36.94;24.10
50632;BME280;49583;45.590;-122.498;2023-07-20T00:42:57;100926.61;;;36.92;23.75
50632;BME280;49583;45.590;-122.498;2023-07-20T00:45:20;100923.56;;;36.91;23.89
50632;BME280;49583;45.590;-122.498;2023-07-20T00:47:47;100921.80;;;36.90;23.90
50632;BME280;49583;45.590;-122.498;2023-07-20T00:50:12;100921.46;;;36.87;23.76
50632;BME280;49583;45.590;-122.498;2023-07-20T00:52:29;100923.80;;;36.84;23.75
50632;BME280;49583;45.590;-122.498;2023-07-20T00:55:03;100918.17;;;36.77;23.74
50632;BME280;49583;45.590;-122.498;2023-07-20T00:57:20;100923.30;;;36.72;23.54
50632;BME280;49583;45.590;-122.498;2023-07-20T00:59:52;100921.44;;;36.69;24.02
50632;BME280;49583;45.590;-122.498;2023-07-20T01:02:26;100920.67;;;36.68;23.95
50632;BME280;49583;45.590;-122.498;2023-07-20T01:04:50;100921.60;;;36.65;24.03
50632;BME280;49583;45.590;-122.498;2023-07-20T01:07:11;100919.52;;;36.64;24.19
50632;BME280;49583;45.590;-122.498;2023-07-20T01:09:36;100918.80;;;36.64;24.06
50632;BME280;49583;45.590;-122.498;2023-07-20T01:12:07;100919.89;;;36.64;24.14
50632;BME280;49583;45.590;-122.498;2023-07-20T01:14:31;100920.18;;;36.62;24.13
50632;BME280;49583;45.590;-122.498;2023-07-20T01:16:44;100912.66;;;36.58;23.69
50632;BME280;49583;45.590;-122.498;2023-07-20T01:19:02;100915.66;;;36.57;23.96
50632;BME280;49583;45.590;-122.498;2023-07-20T01:21:22;100916.88;;;36.51;23.94
50632;BME280;49583;45.590;-122.498;2023-07-20T01:24:30;100918.67;;;36.47;24.00
50632;BME280;49583;45.590;-122.498;2023-07-20T01:29:46;100916.09;;;36.33;24.18
50632;BME280;49583;45.590;-122.498;2023-07-20T01:32:06;100916.96;;;36.28;24.27
50632;BME280;49583;45.590;-122.498;2023-07-20T01:34:34;100912.77;;;36.22;24.26
50632;BME280;49583;45.590;-122.498;2023-07-20T01:37:00;100908.64;;;36.18;24.45
50632;BME280;49583;45.590;-122.498;2023-07-20T01:39:24;100909.50;;;36.14;24.56
50632;BME280;49583;45.590;-122.498;2023-07-20T01:41:37;100913.55;;;36.13;24.61
50632;BME280;49583;45.590;-122.498;2023-07-20T01:43:54;100909.75;;;36.09;24.52
50632;BME280;49583;45.590;-122.498;2023-07-20T01:46:20;100915.80;;;36.06;24.77
50632;BME280;49583;45.590;-122.498;2023-07-20T01:48:54;100916.13;;;36.03;24.93
50632;BME280;49583;45.590;-122.498;2023-07-20T01:51:13;100918.08;;;36.00;24.74
50632;BME280;49583;45.590;-122.498;2023-07-20T01:53:41;100917.07;;;35.95;24.67
50632;BME280;49583;45.590;-122.498;2023-07-20T01:56:06;100916.90;;;35.92;24.80
50632;BME280;49583;45.590;-122.498;2023-07-20T01:58:19;100911.90;;;35.88;24.91
50632;BME280;49583;45.590;-122.498;2023-07-20T02:00:43;100914.45;;;35.83;24.89
50632;BME280;49583;45.590;-122.498;2023-07-20T02:02:57;100916.79;;;35.81;25.18
50632;BME280;49583;45.590;-122.498;2023-07-20T02:05:20;100917.73;;;35.77;25.14
50632;BME280;49583;45.590;-122.498;2023-07-20T02:07:45;100916.48;;;35.73;25.27
50632;BME280;49583;45.590;-122.498;2023-07-20T02:10:10;100918.72;;;35.68;25.35
50632;BME280;49583;45.590;-122.498;2023-07-20T02:12:26;100919.72;;;35.64;25.27
50632;BME280;49583;45.590;-122.498;2023-07-20T02:14:38;100923.44;;;35.60;25.50
50632;BME280;49583;45.590;-122.498;2023-07-20T02:16:55;100927.19;;;35.56;25.47
50632;BME280;49583;45.590;-122.498;2023-07-20T02:19:21;100924.38;;;35.50;25.76
50632;BME280;49583;45.590;-122.498;2023-07-20T02:21:34;100925.25;;;35.44;25.86
50632;BME280;49583;45.590;-122.498;2023-07-20T02:23:47;100929.07;;;35.37;25.94
50632;BME280;49583;45.590;-122.498;2023-07-20T02:26:02;100924.34;;;35.30;25.82
50632;BME280;49583;45.590;-122.498;2023-07-20T02:28:16;100927.33;;;35.23;26.18
50632;BME280;49583;45.590;-122.498;2023-07-20T02:30:42;100926.92;;;35.14;26.27
50632;BME280;49583;45.590;-122.498;2023-07-20T02:32:56;100925.35;;;35.09;26.34
50632;BME280;49583;45.590;-122.498;2023-07-20T02:35:10;100926.10;;;35.05;26.70
50632;BME280;49583;45.590;-122.498;2023-07-20T02:37:33;100923.84;;;34.99;26.90
50632;BME280;49583;45.590;-122.498;2023-07-20T02:40:06;100920.52;;;34.92;27.07
50632;BME280;49583;45.590;-122.498;2023-07-20T02:42:29;100921.24;;;34.86;27.35
50632;BME280;49583;45.590;-122.498;2023-07-20T02:44:46;100927.13;;;34.81;27.50
50632;BME280;49583;45.590;-122.498;2023-07-20T02:47:02;100929.61;;;34.72;27.70
50632;BME280;49583;45.590;-122.498;2023-07-20T02:49:18;100929.16;;;34.66;27.77
50632;BME280;49583;45.590;-122.498;2023-07-20T02:51:42;100932.31;;;34.62;27.96
50632;BME280;49583;45.590;-122.498;2023-07-20T02:53:55;100935.59;;;34.58;28.05
50632;BME280;49583;45.590;-122.498;2023-07-20T02:56:23;100934.14;;;34.53;28.21
50632;BME280;49583;45.590;-122.498;2023-07-20T02:58:39;100937.00;;;34.49;28.21
50632;BME280;49583;45.590;-122.498;2023-07-20T03:00:57;100941.10;;;34.44;28.37
50632;BME280;49583;45.590;-122.498;2023-07-20T03:03:11;100942.60;;;34.40;28.51
50632;BME280;49583;45.590;-122.498;2023-07-20T03:05:25;100943.02;;;34.34;28.65
50632;BME280;49583;45.590;-122.498;2023-07-20T03:07:38;100944.98;;;34.26;28.70
50632;BME280;49583;45.590;-122.498;2023-07-20T03:10:03;100947.71;;;34.20;28.88
50632;BME280;49583;45.590;-122.498;2023-07-20T03:12:18;100950.09;;;34.11;29.00
50632;BME280;49583;45.590;-122.498;2023-07-20T03:14:52;100949.05;;;34.02;29.27
50632;BME280;49583;45.590;-122.498;2023-07-20T03:17:11;100954.84;;;33.93;29.41
50632;BME280;49583;45.590;-122.498;2023-07-20T03:19:44;100957.61;;;33.85;29.68
50632;BME280;49583;45.590;-122.498;2023-07-20T03:22:19;100960.96;;;33.78;29.93
50632;BME280;49583;45.590;-122.498;2023-07-20T03:24:53;100964.50;;;33.71;30.09
50632;BME280;49583;45.590;-122.498;2023-07-20T03:27:16;100967.05;;;33.61;30.16
50632;BME280;49583;45.590;-122.498;2023-07-20T03:29:46;100972.92;;;33.55;30.32
50632;BME280;49583;45.590;-122.498;2023-07-20T03:32:09;100976.05;;;33.48;30.50
50632;BME280;49583;45.590;-122.498;2023-07-20T03:34:22;100976.95;;;33.40;30.54
50632;BME280;49583;45.590;-122.498;2023-07-20T03:36:45;100980.73;;;33.29;30.61
50632;BME280;49583;45.590;-122.498;2023-07-20T03:39:12;100985.95;;;33.20;30.96
50632;BME280;49583;45.590;-122.498;2023-07-20T03:41:36;100988.42;;;33.10;31.38
50632;BME280;49583;45.590;-122.498;2023-07-20T03:43:53;100992.94;;;32.97;31.46
50632;BME280;49583;45.590;-122.498;2023-07-20T03:46:26;101000.52;;;32.86;31.51
50632;BME280;49583;45.590;-122.498;2023-07-20T03:48:39;101003.80;;;32.78;31.90
50632;BME280;49583;45.590;-122.498;2023-07-20T03:50:55;101008.63;;;32.67;32.04
50632;BME280;49583;45.590;-122.498;2023-07-20T03:53:11;101008.18;;;32.57;31.99
50632;BME280;49583;45.590;-122.498;2023-07-20T03:55:28;101012.33;;;32.46;32.06
50632;BME280;49583;45.590;-122.498;2023-07-20T03:57:51;101011.95;;;32.32;32.28
50632;BME280;49583;45.590;-122.498;2023-07-20T04:00:05;101011.45;;;32.21;32.50
50632;BME280;49583;45.590;-122.498;2023-07-20T04:02:21;101012.38;;;32.07;32.42
50632;BME280;49583;45.590;-122.498;2023-07-20T04:04:37;101017.10;;;31.96;32.83
50632;BME280;49583;45.590;-122.498;2023-07-20T04:07:10;101021.27;;;31.87;32.82
50632;BME280;49583;45.590;-122.498;2023-07-20T04:09:23;101026.48;;;31.77;33.09
50632;BME280;49583;45.590;-122.498;2023-07-20T04:11:46;101026.15;;;31.65;33.17
50632;BME280;49583;45.590;-122.498;2023-07-20T04:13:59;101032.09;;;31.57;33.16
50632;BME280;49583;45.590;-122.498;2023-07-20T04:16:32;101036.86;;;31.47;33.34
50632;BME280;49583;45.590;-122.498;2023-07-20T04:18:57;101043.52;;;31.37;33.48
50632;BME280;49583;45.590;-122.498;2023-07-20T04:21:12;101046.92;;;31.29;33.73
50632;BME280;49583;45.590;-122.498;2023-07-20T04:23:45;101050.36;;;31.21;33.62
50632;BME280;49583;45.590;-122.498;2023-07-20T04:26:18;101054.28;;;31.11;33.54
50632;BME280;49583;45.590;-122.498;2023-07-20T04:28:52;101058.57;;;31.00;33.63
50632;BME280;49583;45.590;-122.498;2023-07-20T04:31:30;101063.73;;;30.90;33.79
50632;BME280;49583;45.590;-122.498;2023-07-20T04:33:44;101071.11;;;30.83;33.64
50632;BME280;49583;45.590;-122.498;2023-07-20T04:36:17;101073.38;;;30.73;33.89
50632;BME280;49583;45.590;-122.498;2023-07-20T04:38:50;101080.29;;;30.65;33.75
50632;BME280;49583;45.590;-122.498;2023-07-20T04:41:23;101083.95;;;30.56;33.84
50632;BME280;49583;45.590;-122.498;2023-07-20T04:43:39;101087.52;;;30.48;33.98
50632;BME280;49583;45.590;-122.498;2023-07-20T04:45:55;101090.04;;;30.39;34.05
50632;BME280;49583;45.590;-122.498;2023-07-20T04:48:20;101091.92;;;30.32;34.18
50632;BME280;49583;45.590;-122.498;2023-07-20T04:50:53;101100.64;;;30.23;34.25
50632;BME280;49583;45.590;-122.498;2023-07-20T04:53:10;101104.66;;;30.13;34.30
50632;BME280;49583;45.590;-122.498;2023-07-20T04:55:36;101104.64;;;30.04;34.44
50632;BME280;49583;45.590;-122.498;2023-07-20T04:57:59;101108.73;;;29.94;34.59
50632;BME280;49583;45.590;-122.498;2023-07-20T05:00:33;101113.02;;;29.80;34.68
50632;BME280;49583;45.590;-122.498;2023-07-20T05:03:07;101120.17;;;29.72;34.76
50632;BME280;49583;45.590;-122.498;2023-07-20T05:05:40;101129.69;;;29.63;34.93
50632;BME280;49583;45.590;-122.498;2023-07-20T05:07:58;101135.40;;;29.57;35.08
50632;BME280;49583;45.590;-122.498;2023-07-20T05:10:13;101137.39;;;29.49;35.16
50632;BME280;49583;45.590;-122.498;2023-07-20T05:12:37;101139.45;;;29.38;35.27
50632;BME280;49583;45.590;-122.498;2023-07-20T05:14:50;101139.71;;;29.30;35.47
50632;BME280;49583;45.590;-122.498;2023-07-20T05:17:15;101143.26;;;29.19;35.71
50632;BME280;49583;45.590;-122.498;2023-07-20T05:19:29;101144.99;;;29.13;35.74
50632;BME280;49583;45.590;-122.498;2023-07-20T05:21:42;101146.34;;;29.05;35.84
50632;BME280;49583;45.590;-122.498;2023-07-20T05:23:55;101153.30;;;29.00;35.91
50632;BME280;49583;45.590;-122.498;2023-07-20T05:26:12;101156.89;;;28.92;36.04
50632;BME280;49583;45.590;-122.498;2023-07-20T05:28:32;101155.66;;;28.86;36.16
50632;BME280;49583;45.590;-122.498;2023-07-20T05:30:47;101156.30;;;28.79;36.21
50632;BME280;49583;45.590;-122.498;2023-07-20T05:33:10;101159.27;;;28.71;36.22
50632;BME280;49583;45.590;-122.498;2023-07-20T05:35:32;101163.57;;;28.66;36.47
50632;BME280;49583;45.590;-122.498;2023-07-20T05:38:05;101165.11;;;28.56;36.58
50632;BME280;49583;45.590;-122.498;2023-07-20T05:40:29;101170.60;;;28.51;36.59
50632;BME280;49583;45.590;-122.498;2023-07-20T05:43:02;101173.70;;;28.45;36.91
50632;BME280;49583;45.590;-122.498;2023-07-20T05:45:18;101175.94;;;28.38;37.07
50632;BME280;49583;45.590;-122.498;2023-07-20T05:47:34;101181.73;;;28.34;37.14
50632;BME280;49583;45.590;-122.498;2023-07-20T05:49:47;101183.73;;;28.29;37.07
50632;BME280;49583;45.590;-122.498;2023-07-20T05:52:11;101188.02;;;28.21;37.26
50632;BME280;49583;45.590;-122.498;2023-07-20T05:54:24;101188.98;;;28.13;37.30
50632;BME280;49583;45.590;-122.498;2023-07-20T05:56:37;101191.98;;;28.09;37.45
50632;BME280;49583;45.590;-122.498;2023-07-20T05:59:05;101195.61;;;28.02;37.61
50632;BME280;49583;45.590;-122.498;2023-07-20T06:01:22;101195.73;;;27.97;37.63
50632;BME280;49583;45.590;-122.498;2023-07-20T06:03:57;101197.69;;;27.90;37.84
50632;BME280;49583;45.590;-122.498;2023-07-20T06:06:21;101203.98;;;27.84;37.82
50632;BME280;49583;45.590;-122.498;2023-07-20T06:08:34;101204.73;;;27.78;37.95
50632;BME280;49583;45.590;-122.498;2023-07-20T06:10:58;101215.37;;;27.71;38.05
50632;BME280;49583;45.590;-122.498;2023-07-20T06:13:34;101212.72;;;27.64;38.14
50632;BME280;49583;45.590;-122.498;2023-07-20T06:15:49;101214.95;;;27.56;38.46
50632;BME280;49583;45.590;-122.498;2023-07-20T06:18:06;101213.08;;;27.50;38.39
50632;BME280;49583;45.590;-122.498;2023-07-20T06:20:40;101220.25;;;27.43;38.50
50632;BME280;49583;45.590;-122.498;2023-07-20T06:22:57;101222.14;;;27.39;38.62
50632;BME280;49583;45.590;-122.498;2023-07-20T06:25:15;101224.36;;;27.33;38.80
50632;BME280;49583;45.590;-122.498;2023-07-20T06:27:31;101227.36;;;27.28;38.95
50632;BME280;49583;45.590;-122.498;2023-07-20T06:29:56;101232.88;;;27.23;39.00
50632;BME280;49583;45.590;-122.498;2023-07-20T06:32:18;101232.95;;;27.14;39.08
50632;BME280;49583;45.590;-122.498;2023-07-20T06:34:51;101240.86;;;27.08;39.40
50632;BME280;49583;45.590;-122.498;2023-07-20T06:37:08;101237.53;;;27.02;39.32
50632;BME280;49583;45.590;-122.498;2023-07-20T06:39:41;101240.80;;;26.94;39.54
50632;BME280;49583;45.590;-122.498;2023-07-20T06:41:57;101242.27;;;26.89;39.58
50632;BME280;49583;45.590;-122.498;2023-07-20T06:44:09;101246.67;;;26.80;39.78
50632;BME280;49583;45.590;-122.498;2023-07-20T06:46:22;101249.55;;;26.74;39.74
50632;BME280;49583;45.590;-122.498;2023-07-20T06:48:46;101250.84;;;26.67;40.01
50632;BME280;49583;45.590;-122.498;2023-07-20T06:51:02;101251.13;;;26.59;39.91
50632;BME280;49583;45.590;-122.498;2023-07-20T06:53:27;101252.55;;;26.51;40.11
50632;BME280;49583;45.590;-122.498;2023-07-20T06:55:44;101256.56;;;26.44;40.09
50632;BME280;49583;45.590;-122.498;2023-07-20T06:58:11;101259.83;;;26.38;40.30
50632;BME280;49583;45.590;-122.498;2023-07-20T07:00:24;101263.23;;;26.32;40.57
50632;BME280;49583;45.590;-122.498;2023-07-20T07:02:48;101265.98;;;26.27;40.62
50632;BME280;49583;45.590;-122.498;2023-07-20T07:05:22;101269.81;;;26.22;40.54
50632;BME280;49583;45.590;-122.498;2023-07-20T07:07:59;101269.31;;;26.18;40.72
50632;BME280;49583;45.590;-122.498;2023-07-20T07:10:32;101269.89;;;26.13;40.84
50632;BME280;49583;45.590;-122.498;2023-07-20T07:12:50;101272.44;;;26.08;40.86
50632;BME280;49583;45.590;-122.498;2023-07-20T07:15:13;101276.27;;;26.03;41.07
50632;BME280;49583;45.590;-122.498;2023-07-20T07:17:37;101278.14;;;25.99;41.14
50632;BME280;49583;45.590;-122.498;2023-07-20T07:20:01;101286.66;;;25.95;41.27
50632;BME280;49583;45.590;-122.498;2023-07-20T07:22:28;101289.83;;;25.87;41.19
50632;BME280;49583;45.590;-122.498;2023-07-20T07:24:52;101295.15;;;25.80;41.42
50632;BME280;49583;45.590;-122.498;2023-07-20T07:27:16;101299.65;;;25.73;41.51
50632;BME280;49583;45.590;-122.498;2023-07-20T07:29:33;101302.41;;;25.66;41.67
50632;BME280;49583;45.590;-122.498;2023-07-20T07:31:49;101301.13;;;25.58;41.71
50632;BME280;49583;45.590;-122.498;2023-07-20T07:34:22;101306.61;;;25.52;41.90
50632;BME280;49583;45.590;-122.498;2023-07-20T07:36:35;101309.84;;;25.46;41.92
50632;BME280;49583;45.590;-122.498;2023-07-20T07:38:58;101309.60;;;25.38;42.04
50632;BME280;49583;45.590;-122.498;2023-07-20T07:41:35;101310.90;;;25.28;42.16
50632;BME280;49583;45.590;-122.498;2023-07-20T07:43:57;101312.38;;;25.19;42.29
50632;BME280;49583;45.590;-122.498;2023-07-20T07:46:30;101314.60;;;25.12;42.50
50632;BME280;49583;45.590;-122.498;2023-07-20T07:48:55;101314.92;;;25.06;42.54
50632;BME280;49583;45.590;-122.498;2023-07-20T07:51:14;101313.81;;;24.97;42.59
50632;BME280;49583;45.590;-122.498;2023-07-20T07:53:40;101309.53;;;24.86;42.76
50632;BME280;49583;45.590;-122.498;2023-07-20T07:56:14;101317.75;;;24.78;42.88
50632;BME280;49583;45.590;-122.498;2023-07-20T07:58:37;101318.82;;;24.70;43.10
50632;BME280;49583;45.590;-122.498;2023-07-20T08:01:01;101320.86;;;24.64;43.16
50632;BME280;49583;45.590;-122.498;2023-07-20T08:03:25;101318.84;;;24.58;43.28
50632;BME280;49583;45.590;-122.498;2023-07-20T08:05:42;101318.27;;;24.53;43.39
50632;BME280;49583;45.590;-122.498;2023-07-20T08:07:55;101321.88;;;24.49;43.50
50632;BME280;49583;45.590;-122.498;2023-07-20T08:10:18;101323.16;;;24.46;43.66
50632;BME280;49583;45.590;-122.498;2023-07-20T08:12:31;101326.13;;;24.42;43.70
50632;BME280;49583;45.590;-122.498;2023-07-20T08:14:47;101329.73;;;24.36;43.79
50632;BME280;49583;45.590;-122.498;2023-07-20T08:17:03;101327.04;;;24.32;43.90
50632;BME280;49583;45.590;-122.498;2023-07-20T08:19:38;101325.73;;;24.27;44.09
50632;BME280;49583;45.590;-122.498;2023-07-20T08:21:52;101328.55;;;24.23;44.12
50632;BME280;49583;45.590;-122.498;2023-07-20T08:24:06;101328.39;;;24.18;44.17
50632;BME280;49583;45.590;-122.498;2023-07-20T08:26:39;101336.75;;;24.12;44.42
50632;BME280;49583;45.590;-122.498;2023-07-20T08:28:52;101334.92;;;24.06;44.52
50632;BME280;49583;45.590;-122.498;2023-07-20T08:31:07;101335.53;;;24.00;44.80
50632;BME280;49583;45.590;-122.498;2023-07-20T08:33:20;101333.52;;;23.94;44.82
50632;BME280;49583;45.590;-122.498;2023-07-20T08:35:44;101334.31;;;23.88;45.01
50632;BME280;49583;45.590;-122.498;2023-07-20T08:37:58;101332.30;;;23.82;45.22
50632;BME280;49583;45.590;-122.498;2023-07-20T08:40:13;101333.08;;;23.76;45.40
50632;BME280;49583;45.590;-122.498;2023-07-20T08:42:27;101328.73;;;23.70;45.52
50632;BME280;49583;45.590;-122.498;2023-07-20T08:44:45;101331.23;;;23.65;45.58
50632;BME280;49583;45.590;-122.498;2023-07-20T08:47:21;101333.39;;;23.58;45.79
50632;BME280;49583;45.590;-122.498;2023-07-20T08:49:56;101334.84;;;23.49;45.93
50632;BME280;49583;45.590;-122.498;2023-07-20T08:52:12;101339.20;;;23.42;46.09
50632;BME280;49583;45.590;-122.498;2023-07-20T08:54:44;101343.44;;;23.34;46.19
50632;BME280;49583;45.590;-122.498;2023-07-20T08:56:58;101347.90;;;23.27;46.34
50632;BME280;49583;45.590;-122.498;2023-07-20T08:59:29;101347.12;;;23.23;46.61
50632;BME280;49583;45.590;-122.498;2023-07-20T09:01:54;101351.08;;;23.16;46.48
50632;BME280;49583;45.590;-122.498;2023-07-20T09:04:27;101355.73;;;23.11;46.63
50632;BME280;49583;45.590;-122.498;2023-07-20T09:06:51;101359.30;;;23.03;46.88
50632;BME280;49583;45.590;-122.498;2023-07-20T09:09:05;101360.48;;;22.96;46.95
50632;BME280;49583;45.590;-122.498;2023-07-20T09:11:18;101361.85;;;22.91;47.04
50632;BME280;49583;45.590;-122.498;2023-07-20T09:14:06;101364.39;;;22.83;47.22
50632;BME280;49583;45.590;-122.498;2023-07-20T09:16:29;101363.17;;;22.76;47.26
50632;BME280;49583;45.590;-122.498;2023-07-20T09:18:52;101365.66;;;22.69;47.51
50632;BME280;49583;45.590;-122.498;2023-07-20T09:21:07;101360.45;;;22.60;47.59
50632;BME280;49583;45.590;-122.498;2023-07-20T09:23:40;101365.45;;;22.53;47.72
50632;BME280;49583;45.590;-122.498;2023-07-20T09:25:53;101367.36;;;22.48;47.85
50632;BME280;49583;45.590;-122.498;2023-07-20T09:28:17;101368.64;;;22.44;47.78
50632;BME280;49583;45.590;-122.498;2023-07-20T09:30:34;101366.95;;;22.36;47.86
50632;BME280;49583;45.590;-122.498;2023-07-20T09:33:07;101370.02;;;22.29;48.20
50632;BME280;49583;45.590;-122.498;2023-07-20T09:35:53;101374.64;;;22.22;48.39
50632;BME280;49583;45.590;-122.498;2023-07-20T09:38:28;101376.23;;;22.17;48.38
50632;BME280;49583;45.590;-122.498;2023-07-20T09:41:21;101378.43;;;22.09;48.66
50632;BME280;49583;45.590;-122.498;2023-07-20T09:43:47;101381.79;;;22.03;48.75
50632;BME280;49583;45.590;-122.498;2023-07-20T09:46:09;101385.52;;;21.98;48.81
50632;BME280;49583;45.590;-122.498;2023-07-20T09:48:56;101387.19;;;21.91;48.97
50632;BME280;49583;45.590;-122.498;2023-07-20T09:51:32;101394.61;;;21.84;49.07
50632;BME280;49583;45.590;-122.498;2023-07-20T09:53:50;101392.91;;;21.81;49.14
50632;BME280;49583;45.590;-122.498;2023-07-20T09:56:25;101396.12;;;21.78;49.34
50632;BME280;49583;45.590;-122.498;2023-07-20T09:58:50;101398.58;;;21.73;49.27
50632;BME280;49583;45.590;-122.498;2023-07-20T10:01:20;101397.15;;;21.68;49.33
50632;BME280;49583;45.590;-122.498;2023-07-20T10:03:35;101401.34;;;21.63;49.51
50632;BME280;49583;45.590;-122.498;2023-07-20T10:05:54;101406.74;;;21.59;49.60
50632;BME280;49583;45.590;-122.498;2023-07-20T10:08:21;101415.07;;;21.54;49.62
50632;BME280;49583;45.590;-122.498;2023-07-20T10:10:40;101418.71;;;21.49;49.72
50632;BME280;49583;45.590;-122.498;2023-07-20T10:13:04;101419.25;;;21.45;49.83
50632;BME280;49583;45.590;-122.498;2023-07-20T10:15:32;101414.59;;;21.42;49.91
50632;BME280;49583;45.590;-122.498;2023-07-20T10:18:11;101420.35;;;21.38;50.00
50632;BME280;49583;45.590;-122.498;2023-07-20T10:20:45;101419.14;;;21.32;50.27
50632;BME280;49583;45.590;-122.498;2023-07-20T10:23:21;101419.37;;;21.27;50.63
50632;BME280;49583;45.590;-122.498;2023-07-20T10:25:46;101422.06;;;21.20;50.76
50632;BME280;49583;45.590;-122.498;2023-07-20T10:28:10;101422.00;;;21.16;50.94
50632;BME280;49583;45.590;-122.498;2023-07-20T10:33:03;101422.95;;;21.08;51.47
50632;BME280;49583;45.590;-122.498;2023-07-20T10:35:18;101427.04;;;21.05;51.44
50632;BME280;49583;45.590;-122.498;2023-07-20T10:37:59;101429.23;;;20.99;51.32
50632;BME280;49583;45.590;-122.498;2023-07-20T10:40:33;101433.91;;;20.93;51.35
50632;BME280;49583;45.590;-122.498;2023-07-20T10:42:49;101435.56;;;20.87;51.41
50632;BME280;49583;45.590;-122.498;2023-07-20T10:45:03;101435.45;;;20.82;51.56
50632;BME280;49583;45.590;-122.498;2023-07-20T10:47:17;101437.31;;;20.77;51.66
50632;BME280;49583;45.590;-122.498;2023-07-20T10:49:30;101438.15;;;20.74;51.77
50632;BME280;49583;45.590;-122.498;2023-07-20T10:51:45;101438.80;;;20.69;51.81
50632;BME280;49583;45.590;-122.498;2023-07-20T10:53:59;101441.23;;;20.65;51.90
50632;BME280;49583;45.590;-122.498;2023-07-20T10:56:19;101446.38;;;20.58;52.06
50632;BME280;49583;45.590;-122.498;2023-07-20T10:58:32;101443.62;;;20.54;52.16
50632;BME280;49583;45.590;-122.498;2023-07-20T11:01:12;101448.59;;;20.50;52.22
50632;BME280;49583;45.590;-122.498;2023-07-20T11:03:32;101451.50;;;20.43;52.41
50632;BME280;49583;45.590;-122.498;2023-07-20T11:05:48;101451.21;;;20.38;52.51
50632;BME280;49583;45.590;-122.498;2023-07-20T11:08:00;101457.89;;;20.32;52.73
50632;BME280;49583;45.590;-122.498;2023-07-20T11:10:18;101458.86;;;20.29;52.84
50632;BME280;49583;45.590;-122.498;2023-07-20T11:12:30;101460.55;;;20.26;52.93
50632;BME280;49583;45.590;-122.498;2023-07-20T11:14:53;101461.20;;;20.24;53.04
50632;BME280;49583;45.590;-122.498;2023-07-20T11:17:16;101463.05;;;20.22;53.11
50632;BME280;49583;45.590;-122.498;2023-07-20T11:19:32;101461.31;;;20.19;53.19
50632;BME280;49583;45.590;-122.498;2023-07-20T11:21:49;101460.84;;;20.15;53.29
50632;BME280;49583;45.590;-122.498;2023-07-20T11:24:12;101457.55;;;20.11;53.42
50632;BME280;49583;45.590;-122.498;2023-07-20T11:26:25;101460.64;;;20.08;53.55
50632;BME280;49583;45.590;-122.498;2023-07-20T11:28:38;101456.63;;;20.03;53.61
50632;BME280;49583;45.590;-122.498;2023-07-20T11:30:55;101456.49;;;19.97;53.68
50632;BME280;49583;45.590;-122.498;2023-07-20T11:33:08;101456.60;;;19.91;53.77
50632;BME280;49583;45.590;-122.498;2023-07-20T11:35:20;101466.55;;;19.88;53.94
50632;BME280;49583;45.590;-122.498;2023-07-20T11:37:34;101469.33;;;19.85;54.05
50632;BME280;49583;45.590;-122.498;2023-07-20T11:39:46;101473.79;;;19.83;54.16
50632;BME280;49583;45.590;-122.498;2023-07-20T11:42:00;101474.27;;;19.81;54.27
50632;BME280;49583;45.590;-122.498;2023-07-20T11:44:12;101475.24;;;19.81;54.36
50632;BME280;49583;45.590;-122.498;2023-07-20T11:46:25;101474.20;;;19.81;54.45
50632;BME280;49583;45.590;-122.498;2023-07-20T11:48:38;101476.75;;;19.79;54.51
50632;BME280;49583;45.590;-122.498;2023-07-20T11:50:51;101477.55;;;19.76;54.64
50632;BME280;49583;45.590;-122.498;2023-07-20T11:53:04;101484.95;;;19.74;54.64
50632;BME280;49583;45.590;-122.498;2023-07-20T11:55:16;101485.43;;;19.72;54.76
50632;BME280;49583;45.590;-122.498;2023-07-20T11:57:29;101481.06;;;19.70;54.73
50632;BME280;49583;45.590;-122.498;2023-07-20T11:59:55;101482.11;;;19.66;54.91
50632;BME280;49583;45.590;-122.498;2023-07-20T12:02:08;101486.64;;;19.61;54.95